Terminal Aerodrome Forecast
Issued by NWS

Current Version | Previous Version | Text Only | Print | Product List | Glossary On
Versions: 1 2 3 4 5 6 7 8 9 10 11 12 13
000
FTUS42 TJSJ 041700
TAFKPK
TAF
TKPK 041731Z 0418/0518 07017KT P6SM FEW022 SCT040
     FM042230 06012KT P6SM SCT020
     FM051300 07018KT P6SM SCT020
      AMD NOT SKED 0502/0511=

USA.gov is the U.S. government's official web portal to all federal, state and local government web resources and services.